createdAt,value
2018-02-21T00:02:03.177Z,5.90
2018-02-21T00:04:30.593Z,5.60
2018-02-21T00:06:58.000Z,5.50
2018-02-21T00:11:54.804Z,5.50
2018-02-21T00:14:22.240Z,5.70
2018-02-21T00:21:47.003Z,6.20
2018-02-21T00:26:42.692Z,6.10
2018-02-21T00:31:38.300Z,6.10
2018-02-21T00:34:05.713Z,5.90
2018-02-21T00:36:33.077Z,5.90
2018-02-21T00:41:28.752Z,6.20
2018-02-21T00:43:57.062Z,6.30
2018-02-21T00:46:25.150Z,6.30
2018-02-21T00:51:20.988Z,6.20
2018-02-21T00:53:48.388Z,6.30
2018-02-21T00:56:15.732Z,6.30
2018-02-21T01:01:11.393Z,6.10
2018-02-21T01:03:39.482Z,5.90
2018-02-21T01:11:03.979Z,6.00
2018-02-21T01:13:31.325Z,5.90
2018-02-21T01:15:59.608Z,5.90
2018-02-21T01:18:27.737Z,5.90
2018-02-21T01:20:55.079Z,6.00
2018-02-21T01:23:22.427Z,5.90
2018-02-21T01:25:50.496Z,5.90
2018-02-21T01:28:17.883Z,5.90
2018-02-21T01:30:45.239Z,5.90
2018-02-21T01:35:41.625Z,5.90
2018-02-21T01:38:08.989Z,5.90
2018-02-21T01:40:37.093Z,6.00
2018-02-21T01:43:05.183Z,6.00
2018-02-21T01:45:32.651Z,6.00
2018-02-21T01:50:40.626Z,6.00
2018-02-21T01:53:08.712Z,5.80
2018-02-21T01:55:36.076Z,5.80
2018-02-21T01:58:04.230Z,5.70
2018-02-21T02:00:31.733Z,5.70
2018-02-21T02:02:59.828Z,5.60
2018-02-21T02:05:27.944Z,5.60
2018-02-21T02:10:24.516Z,5.60
2018-02-21T02:12:51.874Z,5.50
2018-02-21T02:15:19.408Z,5.60
2018-02-21T02:17:46.747Z,5.70
2018-02-21T02:22:42.412Z,5.90
2018-02-21T02:25:09.863Z,5.80
2018-02-21T02:30:06.358Z,5.80
2018-02-21T02:32:34.459Z,5.80
2018-02-21T02:35:01.985Z,5.70
2018-02-21T02:37:30.159Z,5.70
2018-02-21T02:47:24.404Z,5.60
2018-02-21T02:52:20.800Z,5.70
2018-02-21T02:54:48.166Z,5.70
2018-02-21T02:57:16.336Z,5.60
2018-02-21T02:59:43.731Z,5.70
2018-02-21T03:02:11.104Z,5.80
2018-02-21T03:04:38.840Z,6.00
2018-02-21T03:07:06.928Z,6.00
2018-02-21T03:09:34.292Z,6.00
2018-02-21T03:14:29.950Z,5.90
2018-02-21T03:16:57.292Z,5.90
2018-02-21T03:21:53.793Z,5.70
2018-02-21T03:24:21.161Z,5.80
2018-02-21T03:26:49.268Z,5.80
2018-02-21T03:29:16.587Z,6.00
2018-02-21T03:31:44.732Z,6.00
2018-02-21T03:36:40.496Z,6.10
2018-02-21T03:39:07.836Z,6.00
2018-02-21T03:41:35.232Z,6.00
2018-02-21T03:44:02.570Z,6.00
2018-02-21T03:46:29.888Z,6.00
2018-02-21T03:48:58.016Z,5.90
2018-02-21T03:51:25.350Z,5.90
2018-02-21T03:56:20.935Z,6.00
2018-02-21T04:01:17.328Z,6.00
2018-02-21T04:06:13.769Z,6.00
2018-02-21T04:11:09.409Z,6.10
2018-02-21T04:13:37.041Z,6.20
2018-02-21T04:16:04.452Z,6.30
2018-02-21T04:21:00.233Z,6.30
2018-02-21T04:23:27.577Z,6.30
2018-02-21T04:28:23.476Z,6.30
2018-02-21T04:30:50.829Z,6.20
2018-02-21T04:33:18.208Z,6.10
2018-02-21T04:40:42.195Z,6.20
2018-02-21T04:45:38.628Z,6.20
2018-02-21T04:48:05.980Z,6.30
2018-02-21T04:50:34.135Z,6.30
2018-02-21T04:53:01.486Z,6.30
2018-02-21T04:55:32.014Z,6.40
2018-02-21T04:57:59.369Z,6.30
2018-02-21T05:00:27.274Z,6.20
2018-02-21T05:02:54.663Z,6.20
2018-02-21T05:05:22.017Z,6.20
2018-02-21T05:10:17.649Z,6.10
2018-02-21T05:12:45.312Z,6.10
2018-02-21T05:15:12.683Z,6.10
2018-02-21T05:20:08.370Z,6.00
2018-02-21T05:22:35.732Z,6.00
2018-02-21T05:27:31.351Z,6.10
2018-02-21T05:34:55.469Z,6.10
2018-02-21T05:39:51.115Z,6.30
2018-02-21T05:42:19.232Z,6.20
2018-02-21T05:47:14.820Z,6.20
2018-02-21T05:52:10.494Z,6.10
2018-02-21T05:54:37.865Z,6.30
2018-02-21T05:59:33.508Z,6.40
2018-02-21T06:04:30.133Z,6.50
2018-02-21T06:06:57.457Z,6.40
2018-02-21T06:09:24.816Z,6.30
2018-02-21T06:11:52.990Z,6.20
2018-02-21T06:16:49.022Z,6.10
2018-02-21T06:19:17.215Z,6.30
2018-02-21T06:21:44.564Z,6.40
2018-02-21T06:24:12.674Z,6.50
2018-02-21T06:26:40.028Z,6.60
2018-02-21T06:29:07.396Z,6.70
2018-02-21T06:31:34.872Z,6.60
2018-02-21T06:34:02.969Z,6.50
2018-02-21T06:36:30.423Z,6.50
2018-02-21T06:38:58.524Z,6.50
2018-02-21T06:41:26.641Z,6.50
2018-02-21T06:43:54.026Z,6.50
2018-02-21T06:46:22.258Z,6.60
2018-02-21T06:48:49.594Z,6.50
2018-02-21T06:53:45.264Z,6.40
2018-02-21T06:56:13.396Z,6.30
2018-02-21T06:58:40.794Z,6.30
2018-02-21T07:01:08.956Z,6.20
2018-02-21T07:03:36.528Z,6.40
2018-02-21T07:06:03.928Z,6.50
2018-02-21T07:08:31.308Z,6.50
2018-02-21T07:13:27.043Z,6.60
2018-02-21T07:15:54.552Z,6.60
2018-02-21T07:18:22.141Z,6.50
2018-02-21T07:25:46.340Z,6.50
2018-02-21T07:28:13.947Z,6.50
2018-02-21T07:30:41.599Z,6.50
2018-02-21T07:35:38.141Z,6.60
2018-02-21T07:38:05.588Z,6.50
2018-02-21T07:40:33.971Z,6.60
2018-02-21T07:47:58.797Z,6.80
2018-02-21T07:52:55.237Z,6.60
2018-02-21T07:55:22.705Z,6.70
2018-02-21T07:57:50.788Z,6.70
2018-02-21T08:00:18.773Z,6.80
2018-02-21T08:02:47.218Z,6.90
2018-02-21T08:05:14.592Z,6.80
2018-02-21T08:10:10.251Z,6.70
2018-02-21T08:12:37.749Z,6.50
2018-02-21T08:15:06.019Z,6.60
2018-02-21T08:17:33.392Z,6.70
2018-02-21T08:20:01.743Z,6.80
2018-02-21T08:22:30.140Z,6.90
2018-02-21T08:24:57.569Z,6.90
2018-02-21T08:27:25.675Z,7.10
2018-02-21T08:32:22.147Z,7.10
2018-02-21T08:37:17.841Z,6.90
2018-02-21T08:39:45.204Z,6.90
2018-02-21T08:44:40.896Z,6.90
2018-02-21T08:47:08.265Z,6.80
2018-02-21T08:49:35.644Z,6.90
2018-02-21T08:52:03.109Z,6.90
2018-02-21T08:56:58.876Z,6.90
2018-02-21T08:59:26.246Z,6.90
2018-02-21T09:04:22.063Z,7.80
2018-02-21T09:06:50.163Z,8.20
2018-02-21T09:11:45.845Z,9.50
2018-02-21T09:14:13.223Z,9.30
2018-02-21T09:16:41.369Z,8.90
2018-02-21T09:19:08.756Z,8.60
2018-02-21T09:21:36.857Z,8.30
2018-02-21T09:24:04.207Z,8.20
2018-02-21T09:26:32.321Z,8.20
2018-02-21T09:28:59.660Z,8.10
2018-02-21T09:33:55.461Z,8.50
2018-02-21T09:38:51.900Z,9.00
2018-02-21T09:41:19.229Z,9.10
2018-02-21T09:43:46.806Z,9.20
2018-02-21T09:46:14.900Z,8.90
2018-02-21T09:48:42.300Z,8.80
2018-02-21T09:51:09.655Z,8.80
2018-02-21T09:56:05.264Z,8.50
2018-02-21T10:01:01.011Z,8.20
2018-02-21T10:03:28.397Z,8.10
2018-02-21T10:08:24.074Z,8.20
2018-02-21T10:10:51.438Z,8.10
2018-02-21T10:13:19.520Z,8.10
2018-02-21T10:15:47.098Z,8.00
2018-02-21T10:20:42.797Z,8.30
2018-02-21T10:23:10.167Z,8.40
2018-02-21T10:28:05.845Z,8.60
2018-02-21T10:33:02.310Z,8.80
2018-02-21T10:37:58.661Z,8.80
2018-02-21T10:40:26.106Z,8.80
2018-02-21T10:42:53.531Z,9.30
2018-02-21T10:47:49.183Z,10.50
2018-02-21T10:50:16.694Z,11.30
2018-02-21T10:55:13.092Z,11.90
2018-02-21T10:57:41.201Z,11.80
2018-02-21T11:02:38.564Z,11.40
2018-02-21T11:05:06.636Z,10.70
2018-02-21T11:07:34.766Z,10.40
2018-02-21T11:10:02.824Z,9.70
2018-02-21T11:12:30.876Z,9.10
2018-02-21T11:14:58.268Z,9.00
2018-02-21T11:17:26.414Z,8.90
2018-02-21T11:22:22.065Z,9.00
2018-02-21T11:24:49.468Z,9.10
2018-02-21T11:27:16.830Z,8.90
2018-02-21T11:32:12.655Z,8.70
2018-02-21T11:37:08.469Z,11.80
2018-02-21T11:39:35.813Z,11.70
2018-02-21T11:42:03.167Z,13.80
2018-02-21T11:46:58.840Z,16.90
2018-02-21T11:49:26.232Z,17.90
2018-02-21T11:51:54.323Z,17.70
2018-02-21T11:54:21.695Z,18.30
2018-02-21T11:56:49.082Z,19.30
2018-02-21T11:59:17.239Z,19.00
2018-02-21T12:01:44.783Z,19.10
2018-02-21T12:04:13.009Z,19.40
2018-02-21T12:06:40.541Z,19.10
2018-02-21T12:11:36.196Z,18.30
2018-02-21T12:14:04.281Z,16.10
2018-02-21T12:16:31.675Z,14.50
2018-02-21T12:21:27.422Z,13.30
2018-02-21T12:23:54.807Z,12.70
2018-02-21T12:28:50.460Z,13.70
2018-02-21T12:33:46.839Z,13.00
2018-02-21T12:36:14.224Z,12.40
2018-02-21T12:38:41.646Z,11.90
2018-02-21T12:41:15.084Z,11.60
2018-02-21T12:43:43.204Z,12.70
2018-02-21T12:46:10.564Z,15.90
2018-02-21T12:48:38.761Z,17.20
2018-02-21T12:53:34.399Z,16.10
2018-02-21T12:58:30.794Z,14.20
2018-02-21T13:00:58.324Z,14.30
2018-02-21T13:03:26.404Z,14.30
2018-02-21T13:05:54.704Z,15.60
2018-02-21T13:08:22.176Z,16.50
2018-02-21T13:10:49.651Z,17.50
2018-02-21T13:15:45.300Z,20.80
2018-02-21T13:20:41.852Z,21.30
2018-02-21T13:23:09.172Z,21.00
2018-02-21T13:28:04.821Z,21.50
2018-02-21T13:30:32.224Z,21.20
2018-02-21T13:35:27.965Z,16.20
2018-02-21T13:40:24.508Z,13.40
2018-02-21T13:42:52.634Z,12.60
2018-02-21T13:45:20.713Z,12.10
2018-02-21T13:47:48.124Z,11.80
2018-02-21T13:50:15.566Z,11.60
2018-02-21T13:52:42.907Z,12.40
2018-02-21T13:57:38.543Z,14.40
2018-02-21T14:00:06.752Z,15.10
2018-02-21T14:05:02.428Z,17.10
2018-02-21T14:09:58.132Z,15.50
2018-02-21T14:14:53.831Z,13.10
2018-02-21T14:19:49.574Z,11.90
2018-02-21T14:22:16.951Z,11.60
2018-02-21T14:24:44.404Z,11.40
2018-02-21T14:27:11.781Z,11.20
2018-02-21T14:29:39.918Z,11.10
2018-02-21T14:34:35.595Z,10.90
2018-02-21T14:39:32.005Z,10.60
2018-02-21T14:41:59.360Z,10.70
2018-02-21T14:44:26.744Z,10.60
2018-02-21T14:46:54.159Z,10.40
2018-02-21T14:49:22.504Z,10.30
2018-02-21T14:51:50.612Z,10.20
2018-02-21T14:54:17.980Z,10.20
2018-02-21T14:56:45.416Z,10.10
2018-02-21T14:59:13.508Z,10.10
2018-02-21T15:01:40.885Z,10.10
2018-02-21T15:06:36.530Z,9.90
2018-02-21T15:11:32.932Z,9.90
2018-02-21T15:14:00.302Z,9.90
2018-02-21T15:16:27.974Z,9.90
2018-02-21T15:21:24.396Z,10.00
2018-02-21T15:23:51.753Z,9.90
2018-02-21T15:26:19.915Z,9.80
2018-02-21T15:28:47.319Z,9.60
2018-02-21T15:31:14.697Z,9.70
2018-02-21T15:33:42.856Z,9.50
2018-02-21T15:36:10.427Z,9.50
2018-02-21T15:38:37.863Z,9.50
2018-02-21T15:41:05.239Z,9.40
2018-02-21T15:43:39.116Z,9.30
2018-02-21T15:46:08.293Z,9.30
2018-02-21T15:48:35.769Z,9.20
2018-02-21T15:51:03.151Z,9.20
2018-02-21T15:53:31.364Z,9.20
2018-02-21T15:55:58.821Z,9.10
2018-02-21T15:58:26.277Z,9.00
2018-02-21T16:00:53.668Z,8.90
2018-02-21T16:03:21.293Z,9.00
2018-02-21T16:05:48.664Z,9.00
2018-02-21T16:08:16.031Z,9.00
2018-02-21T16:10:43.396Z,9.00
2018-02-21T16:13:10.877Z,9.10
2018-02-21T16:15:38.241Z,9.00
2018-02-21T16:18:06.409Z,9.00
2018-02-21T16:20:33.764Z,9.00
2018-02-21T16:23:01.217Z,8.90
2018-02-21T16:25:28.603Z,8.90
2018-02-21T16:27:56.043Z,8.80
2018-02-21T16:30:23.430Z,8.60
2018-02-21T16:32:50.857Z,8.60
2018-02-21T16:35:18.303Z,8.70
2018-02-21T16:37:45.669Z,8.60
2018-02-21T16:40:13.099Z,8.60
2018-02-21T16:42:40.453Z,8.40
2018-02-21T16:45:08.580Z,8.40
2018-02-21T16:47:35.995Z,8.50
2018-02-21T16:50:03.667Z,8.50
2018-02-21T16:52:31.876Z,8.40
2018-02-21T16:54:59.188Z,8.40
2018-02-21T16:57:26.627Z,8.50
2018-02-21T16:59:54.946Z,8.50
2018-02-21T17:02:22.321Z,8.50
2018-02-21T17:04:49.752Z,8.40
2018-02-21T17:07:17.178Z,8.50
2018-02-21T17:09:44.508Z,8.50
2018-02-21T17:12:12.607Z,8.40
2018-02-21T17:14:40.015Z,8.40
2018-02-21T17:17:07.375Z,8.40
2018-02-21T17:19:34.864Z,8.40
2018-02-21T17:22:03.076Z,8.40
2018-02-21T17:24:30.464Z,8.30
2018-02-21T17:26:57.840Z,8.30
2018-02-21T17:29:25.999Z,8.20
2018-02-21T17:31:53.380Z,8.20
2018-02-21T17:34:20.774Z,8.10
2018-02-21T17:36:48.228Z,8.10
2018-02-21T17:39:15.674Z,8.10
2018-02-21T17:41:43.060Z,8.10
2018-02-21T17:44:10.496Z,8.00
2018-02-21T17:46:37.892Z,8.00
2018-02-21T17:49:06.056Z,7.90
2018-02-21T17:51:33.434Z,7.90
2018-02-21T17:54:02.657Z,7.90
2018-02-21T17:56:30.990Z,7.90
2018-02-21T17:58:58.345Z,7.80
2018-02-21T18:01:26.504Z,7.80
2018-02-21T18:03:53.938Z,7.80
2018-02-21T18:06:21.345Z,7.80
2018-02-21T18:08:49.476Z,7.80
2018-02-21T18:11:18.333Z,7.90
2018-02-21T18:13:45.700Z,7.90
2018-02-21T18:16:13.359Z,7.90
2018-02-21T18:18:40.761Z,7.90
2018-02-21T18:21:08.339Z,7.80
2018-02-21T18:23:36.484Z,7.80
2018-02-21T18:26:03.847Z,7.90
2018-02-21T18:28:31.236Z,7.90
2018-02-21T18:30:58.598Z,7.80
2018-02-21T18:33:26.149Z,7.80
2018-02-21T18:35:53.734Z,7.70
2018-02-21T18:38:21.171Z,7.70
2018-02-21T18:40:48.546Z,7.70
2018-02-21T18:43:15.934Z,7.70
2018-02-21T18:45:43.365Z,7.70
2018-02-21T18:48:10.733Z,7.80
2018-02-21T18:50:38.156Z,7.80
2018-02-21T18:53:05.549Z,7.80
2018-02-21T18:55:33.000Z,7.80
2018-02-21T18:58:00.422Z,7.80
2018-02-21T19:00:27.834Z,7.80
2018-02-21T19:02:55.181Z,7.80
2018-02-21T19:05:23.310Z,7.80
2018-02-21T19:07:50.707Z,7.90
2018-02-21T19:10:18.296Z,7.70
2018-02-21T19:12:46.390Z,7.60
2018-02-21T19:15:14.745Z,7.50
2018-02-21T19:17:42.265Z,7.60
2018-02-21T19:20:09.689Z,7.60
2018-02-21T19:22:37.116Z,7.60
2018-02-21T19:25:04.478Z,7.60
2018-02-21T19:27:31.875Z,7.50
2018-02-21T19:29:59.256Z,7.40
2018-02-21T19:32:26.644Z,7.50
2018-02-21T19:34:54.102Z,7.40
2018-02-21T19:37:21.459Z,7.30
2018-02-21T19:39:48.883Z,7.30
2018-02-21T19:42:16.986Z,7.30
2018-02-21T19:44:44.529Z,7.30
2018-02-21T19:47:12.704Z,7.40
2018-02-21T19:49:40.792Z,7.40
2018-02-21T19:52:08.209Z,7.30
2018-02-21T19:54:36.371Z,7.30
2018-02-21T19:57:03.771Z,7.40
2018-02-21T19:59:31.295Z,7.40
2018-02-21T20:01:58.723Z,7.40
2018-02-21T20:04:26.152Z,7.40
2018-02-21T20:06:53.611Z,7.30
2018-02-21T20:09:21.046Z,7.30
2018-02-21T20:11:49.316Z,7.20
2018-02-21T20:14:16.728Z,7.10
2018-02-21T20:16:44.113Z,7.10
2018-02-21T20:19:11.530Z,7.00
2018-02-21T20:21:39.852Z,7.00
2018-02-21T20:24:08.046Z,6.90
2018-02-21T20:26:35.451Z,6.90
2018-02-21T20:29:03.828Z,6.90
2018-02-21T20:31:31.263Z,6.90
2018-02-21T20:33:58.974Z,7.10
2018-02-21T20:36:27.353Z,7.00
2018-02-21T20:38:55.832Z,6.90
2018-02-21T20:41:24.266Z,6.90
2018-02-21T20:43:51.654Z,7.00
2018-02-21T20:46:20.140Z,6.90
2018-02-21T20:48:48.280Z,6.90
2018-02-21T20:51:15.704Z,6.90
2018-02-21T20:53:43.114Z,6.80
2018-02-21T20:56:10.629Z,6.70
2018-02-21T20:58:38.105Z,6.70
2018-02-21T21:01:05.469Z,6.60
2018-02-21T21:03:32.888Z,6.70
2018-02-21T21:06:00.260Z,6.70
2018-02-21T21:08:27.672Z,6.80
2018-02-21T21:10:55.860Z,6.80
2018-02-21T21:13:23.270Z,6.70
2018-02-21T21:15:51.501Z,6.50
2018-02-21T21:18:18.861Z,6.60
2018-02-21T21:20:46.260Z,6.50
2018-02-21T21:23:13.645Z,6.40
2018-02-21T21:25:41.804Z,6.40
2018-02-21T21:28:09.201Z,6.50
2018-02-21T21:30:36.621Z,6.50
2018-02-21T21:33:04.762Z,6.40
2018-02-21T21:35:32.217Z,6.40
2018-02-21T21:37:59.746Z,6.40
2018-02-21T21:40:27.116Z,6.20
2018-02-21T21:42:54.640Z,6.30
2018-02-21T21:45:22.020Z,6.40
2018-02-21T21:47:49.437Z,6.40
2018-02-21T21:50:17.560Z,6.40
2018-02-21T21:52:44.966Z,6.40
2018-02-21T21:55:12.334Z,6.40
2018-02-21T21:57:39.785Z,6.40
2018-02-21T22:00:07.940Z,6.30
2018-02-21T22:02:36.121Z,6.20
2018-02-21T22:05:03.602Z,6.20
2018-02-21T22:07:30.946Z,6.30
2018-02-21T22:09:58.390Z,6.30
2018-02-21T22:12:25.968Z,6.30
2018-02-21T22:14:53.396Z,6.20
2018-02-21T22:17:21.484Z,6.20
2018-02-21T22:19:48.848Z,6.10
2018-02-21T22:22:16.254Z,6.00
2018-02-21T22:24:43.612Z,6.00
2018-02-21T22:27:10.981Z,6.00
2018-02-21T22:29:38.387Z,5.90
2018-02-21T22:32:05.844Z,5.90
2018-02-21T22:34:33.259Z,6.00
2018-02-21T22:37:01.337Z,6.10
2018-02-21T22:39:28.756Z,6.10
2018-02-21T22:44:24.437Z,6.10
2018-02-21T22:46:52.533Z,6.00
2018-02-21T22:54:17.228Z,5.70
2018-02-21T22:56:45.296Z,5.70
2018-02-21T23:01:42.167Z,5.80
2018-02-21T23:04:09.503Z,6.00
2018-02-21T23:09:05.962Z,6.10
2018-02-21T23:11:34.115Z,6.10
2018-02-21T23:16:29.781Z,6.00
2018-02-21T23:21:25.765Z,5.90
2018-02-21T23:28:49.759Z,5.80
2018-02-21T23:33:45.537Z,5.90
2018-02-21T23:36:13.655Z,5.80
2018-02-21T23:38:41.765Z,5.80
2018-02-21T23:41:09.321Z,5.90
2018-02-21T23:43:37.399Z,5.90
2018-02-21T23:48:33.872Z,5.80
2018-02-21T23:51:01.992Z,5.80
2018-02-21T23:55:57.624Z,5.70
2018-02-21T23:58:24.988Z,5.70
